Dafter, MI (49724)

12:49 AM EDT on August 29, 2015 (GMT -0400)
MesoWest | | Change Station
CLOSE
Current Station
Personal Weather Station
Location: Dafter, MI
Elevation: 686 ft
Nearby Weather Stations

Elev 686 ft 46.37 °N, 84.43 °W | Updated 39 minutes ago

Overcast
Overcast
62 °F
Feels Like 62 °F
N
2
Wind Variable Wind from South
Gusts 5.0 mph

Today
High -- | Low -- °F
--% Chance of Precip.
Yesterday
High -- | Low -- °F
Precip. -- in
6:53 AM 8:22 PM
Waxing Gibbous, 99% visible
Pressure 30.05 in
Visibility 10.0 miles
Clouds Overcast 1300 ft
Dew Point 60 °F
Humidity 94%
Rainfall in
Snow Depth Not available.
UV 0 out of 12
Pollen 10.00 out of 12
Air Quality Not available.
Flu Activity Not available.
METAR KCIU 290435Z AUTO 23004KT 10SM OVC013 18/17 A3005 RMK AO1
Pressure 30.05 in
Visibility 10.0 miles
Clouds Overcast 1300 ft
Dew Point 60 °F
Humidity 94%
Rainfall in
Snow Depth Not available.
UV 0 out of 12
Pollen 10.00 out of 12
Air Quality Not available.
Flu Activity Not available.
METAR KCIU 290435Z AUTO 23004KT 10SM OVC013 18/17 A3005 RMK AO1
Nowcast | as of 12:00 am EDT on August 29, 2015

At 1 am...mostly cloudy. Temperature 64. Southwest winds 6 mph. At 3 am...mostly cloudy. Chance of rain and slight chance of thunderstorms. Temperature 63. Southwest winds 6 mph. At 5 am...mostly cloudy. Chance of rain and slight chance of thunderstorms. Temperature 63. Southwest winds 6 mph. At 7 am...cloudy. Chance of rain and slight chance of thunderstorms. Temperature 62. Southwest winds 5 mph.

×

10-Day Weather Forecast

×

Almanac

Astronomy

Aug. 29, 2015 Rise Set
Actual Time
Civil Twilight
Nautical Twilight
Astronomical Twilight
Moon
Length of Visible Light
Length of Day
Tomorrow will be .
, % of the Moon is Illuminated

Today's Extremes

State Highs State Lows

Community

WunderPhotos

Upload Photos

1,850,614 photos uploaded!

WunderBlogs® & News

Nearby

Air Quality

  Air Quality AQ Index Pollutant
Not available.

Snow Depth

Station Depth Elevation

Earthquake Activity

City Distance Mag. Time & Date
Minimum magnitude displayed is 2.5.

Coastal Water Temperatures

Place Temperature

Stations

Nearby Weather Stations

Station Location Temp. Windchill Dew Point Humidity Wind Precip. Elev Updated Type